createdAt,value
2023-12-15T00:00:39.387Z,100.00
2023-12-15T00:03:22.846Z,100.00
2023-12-15T00:05:30.991Z,100.00
2023-12-15T00:07:39.549Z,100.00
2023-12-15T00:09:47.971Z,100.00
2023-12-15T00:11:55.961Z,100.00
2023-12-15T00:14:04.041Z,100.00
2023-12-15T00:16:12.366Z,100.00
2023-12-15T00:18:20.497Z,100.00
2023-12-15T00:20:28.706Z,100.00
2023-12-15T00:22:36.782Z,100.00
2023-12-15T00:24:45.138Z,100.00
2023-12-15T00:26:53.143Z,100.00
2023-12-15T00:29:01.192Z,100.00
2023-12-15T00:31:09.605Z,100.00
2023-12-15T00:33:17.711Z,100.00
2023-12-15T00:35:25.855Z,100.00
2023-12-15T00:37:34.119Z,100.00
2023-12-15T00:39:42.257Z,100.00
2023-12-15T00:41:50.484Z,100.00
2023-12-15T00:43:58.471Z,100.00
2023-12-15T00:46:07.138Z,100.00
2023-12-15T00:48:15.265Z,100.00
2023-12-15T00:50:23.656Z,100.00
2023-12-15T00:52:31.692Z,100.00
2023-12-15T00:54:39.705Z,100.00
2023-12-15T00:56:47.686Z,100.00
2023-12-15T00:58:55.682Z,100.00
2023-12-15T01:01:03.775Z,100.00
2023-12-15T01:03:11.803Z,100.00
2023-12-15T01:05:20.091Z,100.00
2023-12-15T01:07:32.092Z,100.00
2023-12-15T01:09:40.089Z,100.00
2023-12-15T01:11:48.105Z,100.00
2023-12-15T01:13:56.228Z,100.00
2023-12-15T01:16:08.102Z,100.00
2023-12-15T01:18:16.269Z,100.00
2023-12-15T01:20:24.475Z,100.00
2023-12-15T01:22:32.470Z,100.00
2023-12-15T01:24:40.617Z,100.00
2023-12-15T01:26:48.641Z,100.00
2023-12-15T01:28:56.679Z,100.00
2023-12-15T01:31:04.998Z,100.00
2023-12-15T01:33:13.562Z,100.00
2023-12-15T01:35:21.665Z,100.00
2023-12-15T01:37:29.696Z,100.00
2023-12-15T01:39:37.742Z,100.00
2023-12-15T01:41:45.731Z,100.00
2023-12-15T01:43:53.985Z,100.00
2023-12-15T01:46:08.979Z,100.00
2023-12-15T01:48:23.809Z,100.00
2023-12-15T01:50:32.002Z,100.00
2023-12-15T01:52:40.053Z,100.00
2023-12-15T01:54:48.076Z,100.00
2023-12-15T01:56:56.098Z,100.00
2023-12-15T01:59:04.335Z,100.00
2023-12-15T02:01:13.416Z,100.00
2023-12-15T02:03:21.468Z,100.00
2023-12-15T02:05:29.640Z,100.00
2023-12-15T02:07:37.912Z,100.00
2023-12-15T02:09:46.130Z,100.00
2023-12-15T02:11:54.172Z,100.00
2023-12-15T02:14:02.165Z,100.00
2023-12-15T02:16:11.948Z,100.00
2023-12-15T02:18:20.626Z,100.00
2023-12-15T02:20:28.772Z,100.00
2023-12-15T02:22:36.832Z,100.00
2023-12-15T02:24:44.827Z,100.00
2023-12-15T02:26:52.881Z,100.00
2023-12-15T02:29:00.967Z,100.00
2023-12-15T02:31:09.483Z,100.00
2023-12-15T02:33:17.681Z,100.00
2023-12-15T02:35:25.840Z,100.00
2023-12-15T02:37:34.133Z,100.00
2023-12-15T02:39:43.065Z,100.00
2023-12-15T02:41:51.261Z,100.00
2023-12-15T02:43:59.279Z,100.00
2023-12-15T02:46:08.522Z,100.00
2023-12-15T02:48:18.401Z,100.00
2023-12-15T02:50:26.766Z,100.00
2023-12-15T02:52:34.905Z,100.00
2023-12-15T02:54:43.140Z,100.00
2023-12-15T02:56:51.268Z,100.00
2023-12-15T02:58:59.377Z,100.00
2023-12-15T03:01:08.048Z,100.00
2023-12-15T03:03:16.566Z,100.00
2023-12-15T03:05:25.225Z,100.00
2023-12-15T03:07:33.326Z,100.00
2023-12-15T03:09:41.620Z,100.00
2023-12-15T03:11:49.841Z,100.00
2023-12-15T03:13:57.975Z,100.00
2023-12-15T03:16:09.369Z,100.00
2023-12-15T03:18:17.497Z,100.00
2023-12-15T03:20:25.842Z,100.00
2023-12-15T03:22:34.342Z,100.00
2023-12-15T03:24:42.465Z,100.00
2023-12-15T03:26:50.580Z,100.00
2023-12-15T03:28:58.915Z,100.00
2023-12-15T03:31:08.053Z,100.00
2023-12-15T03:33:16.232Z,100.00
2023-12-15T03:35:24.461Z,100.00
2023-12-15T03:37:32.517Z,100.00
2023-12-15T03:39:40.534Z,100.00
2023-12-15T03:41:48.653Z,100.00
2023-12-15T03:43:56.841Z,100.00
2023-12-15T03:46:05.343Z,100.00
2023-12-15T03:48:13.436Z,100.00
2023-12-15T03:50:22.000Z,100.00
2023-12-15T03:52:30.315Z,100.00
2023-12-15T03:54:38.413Z,100.00
2023-12-15T03:56:46.736Z,100.00
2023-12-15T03:58:55.099Z,100.00
2023-12-15T04:01:03.258Z,100.00
2023-12-15T04:03:11.576Z,100.00
2023-12-15T04:05:22.480Z,100.00
2023-12-15T04:07:30.628Z,100.00
2023-12-15T04:09:38.739Z,100.00
2023-12-15T04:11:47.766Z,100.00
2023-12-15T04:13:55.823Z,100.00
2023-12-15T04:16:05.319Z,100.00
2023-12-15T04:18:14.347Z,100.00
2023-12-15T04:20:22.736Z,100.00
2023-12-15T04:22:30.739Z,100.00
2023-12-15T04:24:38.809Z,100.00
2023-12-15T04:26:46.905Z,100.00
2023-12-15T04:28:54.972Z,100.00
2023-12-15T04:31:03.023Z,100.00
2023-12-15T04:33:11.686Z,100.00
2023-12-15T04:35:20.577Z,100.00
2023-12-15T04:37:29.160Z,100.00
2023-12-15T04:39:37.664Z,100.00
2023-12-15T04:41:45.641Z,100.00
2023-12-15T04:43:54.086Z,100.00
2023-12-15T04:46:02.302Z,100.00
2023-12-15T04:48:10.548Z,100.00
2023-12-15T04:50:18.730Z,100.00
2023-12-15T04:52:26.741Z,100.00
2023-12-15T04:54:34.742Z,100.00
2023-12-15T04:56:42.750Z,100.00
2023-12-15T04:58:50.988Z,100.00
2023-12-15T05:00:58.986Z,100.00
2023-12-15T05:03:07.254Z,100.00
2023-12-15T05:05:16.127Z,100.00
2023-12-15T05:07:24.367Z,100.00
2023-12-15T05:09:32.496Z,100.00
2023-12-15T05:11:40.661Z,100.00
2023-12-15T05:13:49.761Z,100.00
2023-12-15T05:15:57.872Z,100.00
2023-12-15T05:18:06.691Z,100.00
2023-12-15T05:20:15.915Z,100.00
2023-12-15T05:22:24.078Z,100.00
2023-12-15T05:24:34.960Z,100.00
2023-12-15T05:26:43.047Z,100.00
2023-12-15T05:28:51.207Z,100.00
2023-12-15T05:30:59.696Z,100.00
2023-12-15T05:33:08.562Z,100.00
2023-12-15T05:35:17.342Z,100.00
2023-12-15T05:37:25.374Z,100.00
2023-12-15T05:39:33.484Z,100.00
2023-12-15T05:41:46.347Z,100.00
2023-12-15T05:43:54.424Z,100.00
2023-12-15T05:46:03.606Z,100.00
2023-12-15T05:48:12.194Z,100.00
2023-12-15T05:50:20.602Z,100.00
2023-12-15T05:52:28.821Z,100.00
2023-12-15T05:54:36.849Z,100.00
2023-12-15T05:56:44.928Z,100.00
2023-12-15T05:58:53.255Z,100.00
2023-12-15T06:01:01.341Z,100.00
2023-12-15T06:03:09.394Z,100.00
2023-12-15T06:05:18.012Z,100.00
2023-12-15T06:07:26.092Z,100.00
2023-12-15T06:09:37.544Z,100.00
2023-12-15T06:11:46.416Z,100.00
2023-12-15T06:13:54.516Z,100.00
2023-12-15T06:16:02.600Z,100.00
2023-12-15T06:18:10.713Z,100.00
2023-12-15T06:20:19.143Z,100.00
2023-12-15T06:22:27.268Z,100.00
2023-12-15T06:24:35.344Z,100.00
2023-12-15T06:26:43.466Z,100.00
2023-12-15T06:28:52.505Z,100.00
2023-12-15T06:31:00.555Z,100.00
2023-12-15T06:33:08.863Z,100.00
2023-12-15T06:35:19.348Z,100.00
2023-12-15T06:37:27.381Z,100.00
2023-12-15T06:39:35.397Z,100.00
2023-12-15T06:41:43.473Z,100.00
2023-12-15T06:43:51.527Z,100.00
2023-12-15T06:45:59.553Z,100.00
2023-12-15T06:48:08.250Z,100.00
2023-12-15T06:50:16.477Z,100.00
2023-12-15T06:52:24.740Z,100.00
2023-12-15T06:54:32.813Z,100.00
2023-12-15T06:56:42.587Z,100.00
2023-12-15T06:58:50.620Z,100.00
2023-12-15T07:00:58.699Z,100.00
2023-12-15T07:03:06.813Z,100.00
2023-12-15T07:05:15.116Z,100.00
2023-12-15T07:07:23.179Z,100.00
2023-12-15T07:09:31.176Z,100.00
2023-12-15T07:11:40.880Z,100.00
2023-12-15T07:13:49.327Z,100.00
2023-12-15T07:15:57.301Z,100.00
2023-12-15T07:18:05.590Z,100.00
2023-12-15T07:20:14.305Z,100.00
2023-12-15T07:22:22.324Z,100.00
2023-12-15T07:24:30.411Z,100.00
2023-12-15T07:26:39.386Z,100.00
2023-12-15T07:28:47.380Z,100.00
2023-12-15T07:30:55.490Z,100.00
2023-12-15T07:33:03.752Z,100.00
2023-12-15T07:35:20.846Z,100.00
2023-12-15T07:37:37.603Z,100.00
2023-12-15T07:39:46.472Z,100.00
2023-12-15T07:41:54.879Z,100.00
2023-12-15T07:44:02.973Z,100.00
2023-12-15T07:46:19.496Z,100.00
2023-12-15T07:48:28.403Z,100.00
2023-12-15T07:50:36.910Z,100.00
2023-12-15T07:52:44.945Z,100.00
2023-12-15T07:54:52.938Z,100.00
2023-12-15T07:57:01.506Z,100.00
2023-12-15T07:59:09.943Z,100.00
2023-12-15T08:01:18.237Z,100.00
2023-12-15T08:03:26.265Z,100.00
2023-12-15T08:05:34.742Z,100.00
2023-12-15T08:07:43.856Z,100.00
2023-12-15T08:09:51.859Z,100.00
2023-12-15T08:11:59.880Z,100.00
2023-12-15T08:14:07.881Z,100.00
2023-12-15T08:16:15.989Z,100.00
2023-12-15T08:18:24.071Z,100.00
2023-12-15T08:20:32.523Z,100.00
2023-12-15T08:22:40.563Z,100.00
2023-12-15T08:24:48.714Z,100.00
2023-12-15T08:26:58.891Z,100.00
2023-12-15T08:29:06.942Z,100.00
2023-12-15T08:31:14.983Z,100.00
2023-12-15T08:33:23.037Z,100.00
2023-12-15T08:35:31.408Z,100.00
2023-12-15T08:37:39.685Z,100.00
2023-12-15T08:39:47.982Z,100.00
2023-12-15T08:41:56.001Z,100.00
2023-12-15T08:44:04.523Z,100.00
2023-12-15T08:46:12.825Z,100.00
2023-12-15T08:48:21.119Z,100.00
2023-12-15T08:50:29.445Z,100.00
2023-12-15T08:52:37.558Z,100.00
2023-12-15T08:54:45.541Z,100.00
2023-12-15T08:56:53.702Z,100.00
2023-12-15T08:59:01.799Z,100.00
2023-12-15T09:01:10.002Z,100.00
2023-12-15T09:03:18.761Z,99.91
2023-12-15T09:05:47.533Z,100.00
2023-12-15T09:07:56.012Z,99.91
2023-12-15T09:10:04.409Z,100.00
2023-12-15T09:12:12.834Z,100.00
2023-12-15T09:14:22.913Z,99.94
2023-12-15T09:16:31.221Z,99.82
2023-12-15T09:18:39.289Z,100.00
2023-12-15T09:20:47.354Z,99.96
2023-12-15T09:22:55.530Z,98.70
2023-12-15T09:25:04.280Z,99.38
2023-12-15T09:27:12.319Z,99.03
2023-12-15T09:29:20.533Z,99.12
2023-12-15T09:31:28.720Z,99.18
2023-12-15T09:33:37.062Z,99.09
2023-12-15T09:35:45.118Z,99.59
2023-12-15T09:37:53.753Z,98.88
2023-12-15T09:40:01.789Z,98.27
2023-12-15T09:42:10.241Z,98.24
2023-12-15T09:44:18.502Z,98.55
2023-12-15T09:46:27.363Z,98.33
2023-12-15T09:48:35.878Z,97.85
2023-12-15T09:50:52.143Z,99.63
2023-12-15T09:53:00.741Z,98.67
2023-12-15T09:55:10.111Z,98.03
2023-12-15T09:57:19.629Z,98.93
2023-12-15T09:59:27.768Z,99.71
2023-12-15T10:01:35.830Z,98.24
2023-12-15T10:03:43.922Z,97.61
2023-12-15T10:05:52.243Z,96.48
2023-12-15T10:08:00.337Z,96.06
2023-12-15T10:10:09.298Z,95.83
2023-12-15T10:12:17.326Z,94.61
2023-12-15T10:14:26.069Z,94.36
2023-12-15T10:16:34.201Z,93.47
2023-12-15T10:18:46.727Z,93.13
2023-12-15T10:20:57.619Z,92.73
2023-12-15T10:23:07.637Z,92.59
2023-12-15T10:25:24.955Z,88.04
2023-12-15T10:27:33.051Z,83.42
2023-12-15T10:29:42.489Z,75.10
2023-12-15T10:31:52.529Z,68.51
2023-12-15T10:34:04.073Z,64.38
2023-12-15T10:36:16.942Z,59.45
2023-12-15T10:38:24.951Z,55.09
2023-12-15T10:40:33.180Z,53.46
2023-12-15T10:42:42.549Z,49.74
2023-12-15T10:44:50.901Z,46.75
2023-12-15T10:47:00.272Z,46.35
2023-12-15T10:49:09.354Z,46.29
2023-12-15T10:51:17.657Z,46.18
2023-12-15T10:53:26.948Z,47.31
2023-12-15T10:55:36.309Z,45.53
2023-12-15T10:57:44.783Z,45.86
2023-12-15T10:59:53.193Z,47.67
2023-12-15T11:02:01.337Z,50.21
2023-12-15T11:04:22.701Z,52.57
2023-12-15T11:06:33.479Z,57.53
2023-12-15T11:08:42.411Z,62.49
2023-12-15T11:10:52.781Z,66.19
2023-12-15T11:13:01.591Z,68.98
2023-12-15T11:15:11.952Z,71.95
2023-12-15T11:17:20.016Z,74.95
2023-12-15T11:19:29.737Z,76.24
2023-12-15T11:21:40.416Z,79.24
2023-12-15T11:23:58.002Z,80.75
2023-12-15T11:26:06.691Z,81.85
2023-12-15T11:28:17.814Z,81.65
2023-12-15T11:30:36.288Z,82.70
2023-12-15T11:32:45.042Z,83.08
2023-12-15T11:34:53.678Z,83.57
2023-12-15T11:37:01.970Z,86.21
2023-12-15T11:39:13.829Z,84.86
2023-12-15T11:41:24.544Z,86.05
2023-12-15T11:43:35.014Z,87.83
2023-12-15T11:45:43.073Z,87.88
2023-12-15T11:47:51.236Z,86.33
2023-12-15T11:50:00.559Z,87.27
2023-12-15T11:52:11.440Z,88.24
2023-12-15T11:54:20.176Z,87.54
2023-12-15T11:56:29.295Z,87.70
2023-12-15T11:58:37.669Z,87.58
2023-12-15T12:00:45.837Z,88.42
2023-12-15T12:02:53.887Z,89.54
2023-12-15T12:05:02.001Z,89.42
2023-12-15T12:07:12.924Z,89.96
2023-12-15T12:09:21.030Z,90.11
2023-12-15T12:11:29.068Z,90.61
2023-12-15T12:13:40.636Z,90.29
2023-12-15T12:15:57.365Z,89.31
2023-12-15T12:18:05.546Z,89.21
2023-12-15T12:20:14.936Z,89.36
2023-12-15T12:22:22.986Z,90.14
2023-12-15T12:24:31.031Z,90.33
2023-12-15T12:26:39.587Z,90.45
2023-12-15T12:28:50.629Z,91.18
2023-12-15T12:30:59.883Z,91.29
2023-12-15T12:33:08.160Z,92.04
2023-12-15T12:35:16.493Z,92.76
2023-12-15T12:37:24.505Z,93.25
2023-12-15T12:39:32.493Z,93.95
2023-12-15T12:41:41.005Z,94.01
2023-12-15T12:43:48.984Z,94.16
2023-12-15T12:45:56.984Z,94.99
2023-12-15T12:48:05.782Z,94.43
2023-12-15T12:50:14.605Z,95.78
2023-12-15T12:52:22.854Z,95.85
2023-12-15T12:54:30.849Z,96.16
2023-12-15T12:56:50.451Z,97.35
2023-12-15T12:59:06.224Z,97.93
2023-12-15T13:01:14.512Z,97.50
2023-12-15T13:03:22.724Z,97.23
2023-12-15T13:05:30.937Z,97.03
2023-12-15T13:07:38.998Z,97.42
2023-12-15T13:09:47.147Z,97.55
2023-12-15T13:11:55.160Z,97.27
2023-12-15T13:14:05.263Z,97.49
2023-12-15T13:16:16.075Z,98.46
2023-12-15T13:18:24.221Z,98.63
2023-12-15T13:20:32.516Z,99.08
2023-12-15T13:22:45.739Z,99.81
2023-12-15T13:24:59.841Z,100.00
2023-12-15T13:27:08.850Z,99.95
2023-12-15T13:29:16.876Z,99.93
2023-12-15T13:31:25.088Z,100.00
2023-12-15T13:33:33.544Z,100.00
2023-12-15T13:35:42.178Z,100.00
2023-12-15T13:37:50.236Z,100.00
2023-12-15T13:39:59.647Z,100.00
2023-12-15T13:42:08.349Z,100.00
2023-12-15T13:44:16.543Z,100.00
2023-12-15T13:46:24.661Z,100.00
2023-12-15T13:48:32.910Z,100.00
2023-12-15T13:50:41.004Z,100.00
2023-12-15T13:52:49.094Z,100.00
2023-12-15T13:54:57.909Z,100.00
2023-12-15T13:57:06.717Z,100.00
2023-12-15T13:59:14.803Z,100.00
2023-12-15T14:01:23.193Z,100.00
2023-12-15T14:03:31.761Z,100.00
2023-12-15T14:05:40.281Z,100.00
2023-12-15T14:07:48.619Z,100.00
2023-12-15T14:09:56.623Z,100.00
2023-12-15T14:12:05.577Z,100.00
2023-12-15T14:14:13.580Z,100.00
2023-12-15T14:16:28.113Z,100.00
2023-12-15T14:18:43.325Z,100.00
2023-12-15T14:20:52.449Z,100.00
2023-12-15T14:23:00.407Z,100.00
2023-12-15T14:25:10.776Z,100.00
2023-12-15T14:27:19.031Z,100.00
2023-12-15T14:29:27.644Z,100.00
2023-12-15T14:31:35.922Z,100.00
2023-12-15T14:33:44.396Z,100.00
2023-12-15T14:35:52.583Z,100.00
2023-12-15T14:38:00.692Z,100.00
2023-12-15T14:40:13.607Z,100.00
2023-12-15T14:42:21.666Z,100.00
2023-12-15T14:44:29.681Z,100.00
2023-12-15T14:46:38.012Z,100.00
2023-12-15T14:48:46.177Z,100.00
2023-12-15T14:50:54.669Z,100.00
2023-12-15T14:53:02.678Z,100.00
2023-12-15T14:55:11.486Z,100.00
2023-12-15T14:57:19.510Z,100.00
2023-12-15T14:59:27.606Z,100.00
2023-12-15T15:01:35.747Z,100.00
2023-12-15T15:03:48.877Z,100.00
2023-12-15T15:05:57.650Z,100.00
2023-12-15T15:08:06.006Z,100.00
2023-12-15T15:10:14.750Z,100.00
2023-12-15T15:12:22.920Z,100.00
2023-12-15T15:14:31.094Z,100.00
2023-12-15T15:16:39.325Z,100.00
2023-12-15T15:18:47.380Z,100.00
2023-12-15T15:20:55.438Z,100.00
2023-12-15T15:23:03.473Z,100.00
2023-12-15T15:25:12.243Z,100.00
2023-12-15T15:27:20.212Z,100.00
2023-12-15T15:29:28.279Z,100.00
2023-12-15T15:31:36.333Z,100.00
2023-12-15T15:33:44.447Z,100.00
2023-12-15T15:35:52.547Z,100.00
2023-12-15T15:38:00.557Z,100.00
2023-12-15T15:40:12.332Z,100.00
2023-12-15T15:42:20.744Z,100.00
2023-12-15T15:44:30.348Z,100.00
2023-12-15T15:46:38.356Z,100.00
2023-12-15T15:48:46.488Z,100.00
2023-12-15T15:50:54.450Z,100.00
2023-12-15T15:53:03.938Z,100.00
2023-12-15T15:55:16.478Z,100.00
2023-12-15T15:57:24.504Z,100.00
2023-12-15T15:59:32.480Z,100.00
2023-12-15T16:01:43.644Z,100.00
2023-12-15T16:03:52.897Z,100.00
2023-12-15T16:06:00.962Z,100.00
2023-12-15T16:08:09.011Z,100.00
2023-12-15T16:10:17.466Z,100.00
2023-12-15T16:12:25.765Z,100.00
2023-12-15T16:14:34.103Z,100.00
2023-12-15T16:16:42.234Z,100.00
2023-12-15T16:18:50.723Z,100.00
2023-12-15T16:20:58.812Z,100.00
2023-12-15T16:23:06.967Z,100.00
2023-12-15T16:25:15.089Z,100.00
2023-12-15T16:27:23.127Z,100.00
2023-12-15T16:29:31.092Z,100.00
2023-12-15T16:31:39.534Z,100.00
2023-12-15T16:33:47.747Z,100.00
2023-12-15T16:35:55.908Z,100.00
2023-12-15T16:38:05.714Z,100.00
2023-12-15T16:40:15.086Z,100.00
2023-12-15T16:42:23.281Z,100.00
2023-12-15T16:44:31.318Z,100.00
2023-12-15T16:46:39.315Z,100.00
2023-12-15T16:48:53.485Z,100.00
2023-12-15T16:51:02.029Z,100.00
2023-12-15T16:53:10.136Z,100.00
2023-12-15T16:55:18.229Z,100.00
2023-12-15T16:57:26.262Z,100.00
2023-12-15T16:59:34.499Z,100.00
2023-12-15T17:01:42.701Z,100.00
2023-12-15T17:03:50.921Z,100.00
2023-12-15T17:05:59.477Z,100.00
2023-12-15T17:08:08.988Z,100.00
2023-12-15T17:10:17.306Z,100.00
2023-12-15T17:12:25.479Z,100.00
2023-12-15T17:14:33.599Z,100.00
2023-12-15T17:16:42.016Z,100.00
2023-12-15T17:18:51.696Z,100.00
2023-12-15T17:20:59.915Z,100.00
2023-12-15T17:23:08.240Z,100.00
2023-12-15T17:25:16.771Z,100.00
2023-12-15T17:27:25.920Z,100.00
2023-12-15T17:29:43.590Z,100.00
2023-12-15T17:31:55.362Z,100.00
2023-12-15T17:34:04.490Z,100.00
2023-12-15T17:36:13.336Z,100.00
2023-12-15T17:38:21.560Z,100.00
2023-12-15T17:40:29.665Z,100.00
2023-12-15T17:42:37.714Z,100.00
2023-12-15T17:44:45.830Z,100.00
2023-12-15T17:46:53.945Z,100.00
2023-12-15T17:49:02.584Z,100.00
2023-12-15T17:51:11.452Z,100.00
2023-12-15T17:53:19.948Z,100.00
2023-12-15T17:55:28.108Z,100.00
2023-12-15T17:57:36.620Z,100.00
2023-12-15T17:59:44.923Z,100.00
2023-12-15T18:01:53.360Z,100.00
2023-12-15T18:04:01.840Z,100.00
2023-12-15T18:06:11.714Z,100.00
2023-12-15T18:08:19.878Z,100.00
2023-12-15T18:10:28.196Z,100.00
2023-12-15T18:12:36.347Z,100.00
2023-12-15T18:14:45.913Z,100.00
2023-12-15T18:16:54.089Z,100.00
2023-12-15T18:19:02.152Z,100.00
2023-12-15T18:21:10.279Z,100.00
2023-12-15T18:23:18.710Z,100.00
2023-12-15T18:25:27.613Z,100.00
2023-12-15T18:27:38.458Z,100.00
2023-12-15T18:30:22.946Z,100.00
2023-12-15T18:32:31.147Z,100.00
2023-12-15T18:34:39.488Z,100.00
2023-12-15T18:36:47.669Z,100.00
2023-12-15T18:38:56.098Z,100.00
2023-12-15T18:41:04.319Z,100.00
2023-12-15T18:43:12.476Z,100.00
2023-12-15T18:45:20.580Z,100.00
2023-12-15T18:47:28.622Z,100.00
2023-12-15T18:49:36.766Z,100.00
2023-12-15T18:51:45.213Z,100.00
2023-12-15T18:53:59.778Z,100.00
2023-12-15T18:56:16.750Z,100.00
2023-12-15T18:58:24.745Z,100.00
2023-12-15T19:01:45.920Z,100.00
2023-12-15T19:03:54.073Z,100.00
2023-12-15T19:06:02.076Z,100.00
2023-12-15T19:08:10.126Z,100.00
2023-12-15T19:10:18.720Z,100.00
2023-12-15T19:12:28.110Z,100.00
2023-12-15T19:14:36.476Z,100.00
2023-12-15T19:16:44.443Z,100.00
2023-12-15T19:18:53.661Z,100.00
2023-12-15T19:21:01.875Z,100.00
2023-12-15T19:23:09.916Z,100.00
2023-12-15T19:25:18.582Z,100.00
2023-12-15T19:27:27.199Z,100.00
2023-12-15T19:29:35.234Z,100.00
2023-12-15T19:31:43.789Z,100.00
2023-12-15T19:33:53.278Z,100.00
2023-12-15T19:36:01.350Z,100.00
2023-12-15T19:38:09.433Z,100.00
2023-12-15T19:40:17.889Z,100.00
2023-12-15T19:42:25.882Z,100.00
2023-12-15T19:44:33.847Z,100.00
2023-12-15T19:46:41.905Z,100.00
2023-12-15T19:48:50.062Z,100.00
2023-12-15T19:50:58.220Z,100.00
2023-12-15T19:53:06.446Z,100.00
2023-12-15T19:55:15.394Z,100.00
2023-12-15T19:57:23.831Z,100.00
2023-12-15T19:59:31.955Z,100.00
2023-12-15T20:01:41.218Z,100.00
2023-12-15T20:03:49.485Z,100.00
2023-12-15T20:05:57.606Z,100.00
2023-12-15T20:08:05.872Z,100.00
2023-12-15T20:10:14.442Z,100.00
2023-12-15T20:12:22.430Z,100.00
2023-12-15T20:14:30.389Z,100.00
2023-12-15T20:16:38.872Z,100.00
2023-12-15T20:18:48.105Z,100.00
2023-12-15T20:20:56.316Z,100.00
2023-12-15T20:23:04.371Z,100.00
2023-12-15T20:25:12.761Z,100.00
2023-12-15T20:27:20.833Z,100.00
2023-12-15T20:29:28.809Z,100.00
2023-12-15T20:31:36.975Z,100.00
2023-12-15T20:33:45.381Z,100.00
2023-12-15T20:35:53.512Z,100.00
2023-12-15T20:38:01.959Z,100.00
2023-12-15T20:40:14.065Z,100.00
2023-12-15T20:42:22.526Z,100.00
2023-12-15T20:44:30.527Z,100.00
2023-12-15T20:46:38.492Z,100.00
2023-12-15T20:48:46.993Z,100.00
2023-12-15T20:50:56.949Z,100.00
2023-12-15T20:53:05.011Z,100.00
2023-12-15T20:55:14.535Z,100.00
2023-12-15T20:57:22.651Z,100.00
2023-12-15T20:59:30.643Z,100.00
2023-12-15T21:01:39.023Z,100.00
2023-12-15T21:03:47.120Z,100.00
2023-12-15T21:05:55.307Z,100.00
2023-12-15T21:08:03.945Z,100.00
2023-12-15T21:10:12.700Z,100.00
2023-12-15T21:12:20.732Z,100.00
2023-12-15T21:14:28.740Z,100.00
2023-12-15T21:16:39.136Z,100.00
2023-12-15T21:18:47.178Z,100.00
2023-12-15T21:20:55.367Z,100.00
2023-12-15T21:23:03.404Z,100.00
2023-12-15T21:25:12.074Z,100.00
2023-12-15T21:27:20.230Z,100.00
2023-12-15T21:29:29.328Z,100.00
2023-12-15T21:31:37.420Z,100.00
2023-12-15T21:33:45.572Z,100.00
2023-12-15T21:35:56.546Z,100.00
2023-12-15T21:38:05.796Z,100.00
2023-12-15T21:40:14.740Z,100.00
2023-12-15T21:42:23.046Z,100.00
2023-12-15T21:44:31.035Z,100.00
2023-12-15T21:46:41.704Z,100.00
2023-12-15T21:48:49.879Z,100.00
2023-12-15T21:50:58.171Z,100.00
2023-12-15T21:53:06.386Z,100.00
2023-12-15T21:55:14.739Z,100.00
2023-12-15T21:57:22.744Z,100.00
2023-12-15T21:59:30.710Z,100.00
2023-12-15T22:01:39.501Z,100.00
2023-12-15T22:03:49.265Z,100.00
2023-12-15T22:05:57.450Z,100.00
2023-12-15T22:08:07.511Z,100.00
2023-12-15T22:10:15.729Z,100.00
2023-12-15T22:12:23.894Z,100.00
2023-12-15T22:14:39.364Z,100.00
2023-12-15T22:16:50.388Z,100.00
2023-12-15T22:18:58.516Z,100.00
2023-12-15T22:21:07.059Z,100.00
2023-12-15T22:23:15.044Z,100.00
2023-12-15T22:25:23.261Z,100.00
2023-12-15T22:27:31.310Z,100.00
2023-12-15T22:29:40.565Z,100.00
2023-12-15T22:31:48.942Z,100.00
2023-12-15T22:33:57.117Z,100.00
2023-12-15T22:36:05.521Z,100.00
2023-12-15T22:38:13.568Z,100.00
2023-12-15T22:40:22.345Z,100.00
2023-12-15T22:42:30.826Z,100.00
2023-12-15T22:44:39.989Z,100.00
2023-12-15T22:46:48.087Z,100.00
2023-12-15T22:48:56.216Z,100.00
2023-12-15T22:51:06.745Z,100.00
2023-12-15T22:53:15.313Z,100.00
2023-12-15T22:55:23.368Z,100.00
2023-12-15T22:57:31.397Z,100.00
2023-12-15T22:59:39.404Z,100.00
2023-12-15T23:01:48.771Z,100.00
2023-12-15T23:03:56.981Z,100.00
2023-12-15T23:06:06.430Z,100.00
2023-12-15T23:08:14.531Z,100.00
2023-12-15T23:10:23.070Z,100.00
2023-12-15T23:12:31.145Z,100.00
2023-12-15T23:14:41.376Z,100.00
2023-12-15T23:16:50.025Z,100.00
2023-12-15T23:18:58.333Z,100.00
2023-12-15T23:21:12.647Z,100.00
2023-12-15T23:23:27.341Z,100.00
2023-12-15T23:25:35.368Z,100.00
2023-12-15T23:27:43.637Z,100.00
2023-12-15T23:29:51.907Z,100.00
2023-12-15T23:31:59.911Z,100.00
2023-12-15T23:34:08.355Z,100.00
2023-12-15T23:36:18.169Z,100.00
2023-12-15T23:38:26.165Z,100.00
2023-12-15T23:40:34.204Z,100.00
2023-12-15T23:42:42.419Z,100.00
2023-12-15T23:44:50.834Z,100.00
2023-12-15T23:46:58.849Z,100.00
2023-12-15T23:49:07.021Z,100.00
2023-12-15T23:51:16.706Z,100.00
2023-12-15T23:53:25.207Z,100.00
2023-12-15T23:55:33.185Z,100.00
2023-12-15T23:57:42.103Z,100.00
2023-12-15T23:59:50.609Z,100.00
